createdAt,value
2023-03-05T00:00:02.056Z,4.04
2023-03-05T00:02:29.881Z,4.01
2023-03-05T00:04:57.644Z,4.00
2023-03-05T00:07:25.417Z,3.99
2023-03-05T00:09:53.130Z,3.97
2023-03-05T00:12:20.931Z,3.95
2023-03-05T00:14:50.031Z,3.94
2023-03-05T00:17:17.823Z,3.91
2023-03-05T00:19:45.581Z,3.89
2023-03-05T00:22:13.339Z,3.89
2023-03-05T00:24:41.058Z,3.90
2023-03-05T00:27:08.847Z,3.89
2023-03-05T00:29:36.623Z,3.89
2023-03-05T00:32:05.982Z,3.90
2023-03-05T00:34:33.770Z,3.90
2023-03-05T00:37:01.673Z,3.92
2023-03-05T00:39:29.504Z,3.94
2023-03-05T00:41:58.035Z,3.97
2023-03-05T00:44:25.836Z,3.95
2023-03-05T00:46:53.591Z,3.95
2023-03-05T00:49:22.732Z,3.92
2023-03-05T00:51:50.460Z,3.89
2023-03-05T00:54:18.315Z,3.90
2023-03-05T00:56:46.461Z,3.87
2023-03-05T00:59:14.215Z,3.88
2023-03-05T01:01:41.973Z,3.86
2023-03-05T01:04:10.188Z,3.89
2023-03-05T01:06:42.712Z,3.87
2023-03-05T01:09:10.466Z,3.88
2023-03-05T01:11:38.587Z,3.88
2023-03-05T01:14:06.332Z,3.88
2023-03-05T01:16:34.145Z,3.88
2023-03-05T01:19:01.884Z,3.91
2023-03-05T01:21:29.696Z,3.93
2023-03-05T01:23:58.873Z,3.92
2023-03-05T01:26:26.768Z,3.94
2023-03-05T01:28:55.065Z,3.95
2023-03-05T01:31:23.251Z,3.92
2023-03-05T01:33:53.065Z,3.89
2023-03-05T01:36:21.675Z,3.87
2023-03-05T01:38:49.443Z,3.87
2023-03-05T01:41:19.907Z,3.86
2023-03-05T01:43:49.665Z,3.84
2023-03-05T01:46:32.403Z,3.81
2023-03-05T01:49:05.464Z,3.77
2023-03-05T01:51:38.030Z,3.75
2023-03-05T01:54:08.404Z,3.70
2023-03-05T01:56:39.510Z,3.68
2023-03-05T01:59:07.340Z,3.67
2023-03-05T02:01:40.648Z,3.64
2023-03-05T02:04:10.272Z,3.62
2023-03-05T02:06:39.586Z,3.60
2023-03-05T02:09:07.540Z,3.60
2023-03-05T02:11:36.990Z,3.58
2023-03-05T02:14:09.860Z,3.55
2023-03-05T02:16:39.168Z,3.55
2023-03-05T02:19:09.781Z,3.51
2023-03-05T02:21:41.505Z,3.50
2023-03-05T02:24:12.983Z,3.48
2023-03-05T02:26:42.991Z,3.49
2023-03-05T02:29:14.100Z,3.47
2023-03-05T02:31:43.111Z,3.45
2023-03-05T02:34:10.937Z,3.46
2023-03-05T02:36:40.096Z,3.48
2023-03-05T02:39:09.645Z,3.45
2023-03-05T02:41:37.618Z,3.44
2023-03-05T02:44:05.901Z,3.41
2023-03-05T02:46:33.696Z,3.43
2023-03-05T02:49:01.816Z,3.42
2023-03-05T02:51:29.631Z,3.38
2023-03-05T02:53:59.152Z,3.36
2023-03-05T02:56:28.488Z,3.36
2023-03-05T02:58:56.283Z,3.38
2023-03-05T03:01:24.246Z,3.39
2023-03-05T03:03:52.024Z,3.37
2023-03-05T03:06:19.824Z,3.35
2023-03-05T03:08:47.579Z,3.37
2023-03-05T03:11:17.589Z,3.38
2023-03-05T03:13:45.424Z,3.37
2023-03-05T03:16:15.557Z,3.35
2023-03-05T03:18:44.078Z,3.36
2023-03-05T03:21:18.718Z,3.36
2023-03-05T03:23:46.676Z,3.38
2023-03-05T03:26:15.764Z,3.39
2023-03-05T03:28:43.673Z,3.40
2023-03-05T03:31:11.579Z,3.39
2023-03-05T03:33:39.413Z,3.42
2023-03-05T03:36:07.950Z,3.46
2023-03-05T03:38:35.815Z,3.49
2023-03-05T03:41:03.687Z,3.47
2023-03-05T03:43:32.808Z,3.46
2023-03-05T03:46:00.687Z,3.43
2023-03-05T03:48:28.442Z,3.43
2023-03-05T03:50:56.158Z,3.42
2023-03-05T03:53:23.879Z,3.40
2023-03-05T03:55:51.760Z,3.41
2023-03-05T03:58:19.529Z,3.41
2023-03-05T04:00:48.665Z,3.44
2023-03-05T04:03:16.388Z,3.46
2023-03-05T04:05:44.167Z,3.47
2023-03-05T04:08:12.649Z,3.48
2023-03-05T04:10:40.539Z,3.50
2023-03-05T04:13:08.656Z,3.50
2023-03-05T04:15:36.558Z,3.47
2023-03-05T04:18:05.877Z,3.46
2023-03-05T04:20:33.693Z,3.48
2023-03-05T04:23:01.473Z,3.46
2023-03-05T04:25:29.329Z,3.44
2023-03-05T04:27:57.059Z,3.42
2023-03-05T04:30:24.750Z,3.42
2023-03-05T04:32:52.437Z,3.41
2023-03-05T04:35:21.720Z,3.39
2023-03-05T04:37:49.746Z,3.34
2023-03-05T04:40:18.154Z,3.34
2023-03-05T04:42:46.030Z,3.33
2023-03-05T04:45:13.924Z,3.29
2023-03-05T04:47:41.671Z,3.26
2023-03-05T04:50:10.846Z,3.25
2023-03-05T04:52:41.396Z,3.23
2023-03-05T04:55:10.484Z,3.23
2023-03-05T04:57:38.371Z,3.24
2023-03-05T05:00:12.492Z,3.21
2023-03-05T05:02:40.377Z,3.23
2023-03-05T05:05:08.695Z,3.23
2023-03-05T05:07:36.480Z,3.19
2023-03-05T05:10:07.759Z,3.23
2023-03-05T05:12:36.291Z,3.19
2023-03-05T05:15:04.526Z,3.19
2023-03-05T05:17:33.086Z,3.17
2023-03-05T05:20:00.872Z,3.14
2023-03-05T05:22:28.782Z,3.15
2023-03-05T05:24:56.827Z,3.18
2023-03-05T05:27:25.951Z,3.21
2023-03-05T05:29:53.759Z,3.24
2023-03-05T05:32:24.004Z,3.24
2023-03-05T05:34:55.291Z,3.27
2023-03-05T05:37:23.302Z,3.27
2023-03-05T05:39:51.258Z,3.31
2023-03-05T05:42:19.732Z,3.30
2023-03-05T05:44:49.376Z,3.33
2023-03-05T05:47:18.119Z,3.35
2023-03-05T05:49:45.996Z,3.38
2023-03-05T05:52:14.203Z,3.41
2023-03-05T05:54:41.980Z,3.42
2023-03-05T05:57:09.927Z,3.46
2023-03-05T05:59:38.237Z,3.49
2023-03-05T06:02:08.056Z,3.50
2023-03-05T06:04:36.886Z,3.54
2023-03-05T06:07:05.120Z,3.53
2023-03-05T06:09:32.928Z,3.55
2023-03-05T06:12:00.619Z,3.53
2023-03-05T06:14:28.464Z,3.47
2023-03-05T06:16:56.230Z,3.52
2023-03-05T06:19:25.337Z,3.53
2023-03-05T06:21:53.047Z,3.54
2023-03-05T06:24:20.845Z,3.60
2023-03-05T06:26:49.166Z,3.62
2023-03-05T06:29:16.965Z,3.61
2023-03-05T06:31:44.757Z,3.63
2023-03-05T06:34:13.454Z,3.62
2023-03-05T06:36:43.631Z,3.68
2023-03-05T06:39:11.799Z,3.69
2023-03-05T06:41:39.724Z,3.72
2023-03-05T06:44:07.541Z,3.73
2023-03-05T06:46:39.146Z,3.77
2023-03-05T06:49:08.570Z,3.77
2023-03-05T06:51:38.057Z,3.80
2023-03-05T06:54:09.138Z,3.82
2023-03-05T06:56:40.607Z,3.82
2023-03-05T06:59:08.959Z,3.84
2023-03-05T07:01:36.869Z,3.88
2023-03-05T07:04:05.853Z,3.95
2023-03-05T07:06:35.005Z,3.99
2023-03-05T07:09:03.894Z,4.02
2023-03-05T07:11:34.007Z,4.14
2023-03-05T07:14:02.132Z,4.28
2023-03-05T07:16:32.310Z,4.39
2023-03-05T07:19:03.130Z,4.44
2023-03-05T07:21:32.460Z,4.44
2023-03-05T07:24:02.080Z,4.38
2023-03-05T07:26:30.840Z,4.39
2023-03-05T07:29:00.177Z,4.37
2023-03-05T07:31:31.239Z,4.43
2023-03-05T07:34:00.161Z,4.45
2023-03-05T07:36:28.365Z,4.51
2023-03-05T07:38:56.212Z,4.54
2023-03-05T07:41:24.441Z,4.51
2023-03-05T07:43:54.497Z,4.53
2023-03-05T07:46:25.915Z,4.51
2023-03-05T07:48:54.696Z,4.52
2023-03-05T07:51:23.797Z,4.61
2023-03-05T07:53:53.106Z,4.64
2023-03-05T07:56:25.922Z,4.74
2023-03-05T07:58:54.186Z,4.84
2023-03-05T08:01:23.537Z,4.94
2023-03-05T08:03:51.261Z,5.00
2023-03-05T08:06:19.058Z,5.08
2023-03-05T08:08:46.807Z,5.13
2023-03-05T08:11:16.181Z,5.15
2023-03-05T08:13:44.021Z,5.31
2023-03-05T08:16:14.787Z,5.48
2023-03-05T08:18:44.912Z,5.65
2023-03-05T08:21:20.458Z,5.82
2023-03-05T08:23:48.593Z,5.98
2023-03-05T08:26:18.559Z,6.24
2023-03-05T08:28:46.534Z,6.33
2023-03-05T08:31:16.327Z,6.41
2023-03-05T08:33:45.526Z,6.47
2023-03-05T08:36:13.326Z,6.47
2023-03-05T08:38:41.903Z,6.43
2023-03-05T08:41:09.812Z,6.51
2023-03-05T08:43:38.128Z,6.72
2023-03-05T08:46:06.532Z,6.65
2023-03-05T08:48:34.815Z,6.88
2023-03-05T08:51:08.141Z,6.97
2023-03-05T08:53:35.963Z,6.92
2023-03-05T08:56:04.660Z,6.59
2023-03-05T08:58:32.593Z,6.61
2023-03-05T09:01:00.356Z,6.46
2023-03-05T09:03:28.190Z,6.42
2023-03-05T09:06:00.753Z,6.37
2023-03-05T09:08:30.069Z,6.36
2023-03-05T09:10:58.079Z,6.27
2023-03-05T09:13:25.975Z,6.17
2023-03-05T09:15:56.989Z,6.30
2023-03-05T09:18:24.839Z,6.48
2023-03-05T09:20:52.705Z,6.57
2023-03-05T09:23:20.474Z,6.83
2023-03-05T09:25:49.793Z,6.92
2023-03-05T09:28:18.160Z,7.01
2023-03-05T09:30:45.924Z,7.08
2023-03-05T09:33:13.678Z,7.27
2023-03-05T09:35:41.617Z,7.34
2023-03-05T09:38:09.500Z,7.61
2023-03-05T09:40:46.394Z,7.79
2023-03-05T09:43:26.995Z,7.74
2023-03-05T09:46:07.207Z,7.73
2023-03-05T09:48:48.685Z,7.68
2023-03-05T09:51:22.079Z,7.54
2023-03-05T09:53:54.844Z,7.36
2023-03-05T09:56:27.608Z,7.19
2023-03-05T09:59:01.713Z,7.17
2023-03-05T10:01:35.443Z,7.31
2023-03-05T10:04:11.541Z,7.63
2023-03-05T10:06:49.601Z,7.76
2023-03-05T10:09:28.714Z,7.93
2023-03-05T10:12:01.020Z,7.96
2023-03-05T10:14:32.324Z,8.20
2023-03-05T10:17:46.280Z,8.13
2023-03-05T10:20:31.578Z,7.97
2023-03-05T10:23:20.378Z,8.02
2023-03-05T10:25:57.897Z,8.26
2023-03-05T10:28:35.689Z,8.29
2023-03-05T10:31:14.316Z,8.28
2023-03-05T10:33:52.717Z,8.12
2023-03-05T10:36:35.942Z,8.15
2023-03-05T10:39:34.912Z,8.05
2023-03-05T10:42:11.728Z,7.99
2023-03-05T10:44:45.522Z,8.07
2023-03-05T10:47:22.573Z,8.17
2023-03-05T10:49:53.050Z,8.06
2023-03-05T10:52:26.533Z,7.87
2023-03-05T10:54:54.288Z,7.73
2023-03-05T10:57:23.781Z,7.53
2023-03-05T10:59:53.473Z,7.33
2023-03-05T11:02:23.998Z,7.12
2023-03-05T11:04:53.414Z,7.08
2023-03-05T11:07:34.465Z,7.03
2023-03-05T11:10:15.083Z,6.89
2023-03-05T11:12:43.229Z,6.92
2023-03-05T11:15:27.585Z,6.92
2023-03-05T11:18:17.589Z,6.85
2023-03-05T11:20:45.620Z,6.94
2023-03-05T11:23:15.275Z,6.96
2023-03-05T11:25:56.055Z,6.96
2023-03-05T11:28:32.868Z,6.92
2023-03-05T11:31:08.428Z,6.91
2023-03-05T11:33:38.965Z,6.83
2023-03-05T11:36:28.171Z,6.94
2023-03-05T11:38:59.555Z,7.13
2023-03-05T11:41:40.766Z,7.44
2023-03-05T11:44:13.817Z,7.58
2023-03-05T11:46:45.906Z,7.41
2023-03-05T11:49:19.516Z,7.31
2023-03-05T11:51:54.558Z,7.13
2023-03-05T11:54:25.775Z,6.95
2023-03-05T11:56:54.384Z,6.86
2023-03-05T11:59:27.939Z,6.74
2023-03-05T12:01:57.565Z,6.51
2023-03-05T12:04:27.201Z,6.53
2023-03-05T12:06:58.773Z,6.50
2023-03-05T12:09:34.625Z,6.44
2023-03-05T12:12:08.337Z,6.54
2023-03-05T12:14:45.122Z,6.67
2023-03-05T12:17:18.336Z,6.94
2023-03-05T12:19:55.935Z,7.16
2023-03-05T12:22:25.867Z,7.39
2023-03-05T12:24:54.039Z,7.50
2023-03-05T12:27:42.853Z,7.72
2023-03-05T12:30:54.713Z,7.88
2023-03-05T12:33:38.325Z,7.90
2023-03-05T12:36:36.385Z,8.12
2023-03-05T12:39:49.651Z,8.26
2023-03-05T12:42:46.913Z,8.48
2023-03-05T12:45:27.420Z,8.60
2023-03-05T12:48:32.608Z,8.62
2023-03-05T12:51:00.382Z,8.57
2023-03-05T12:53:30.238Z,8.59
2023-03-05T12:56:03.829Z,8.52
2023-03-05T12:58:40.166Z,8.47
2023-03-05T13:01:17.369Z,8.55
2023-03-05T13:03:48.314Z,8.65
2023-03-05T13:06:27.282Z,8.52
2023-03-05T13:09:01.520Z,8.52
2023-03-05T13:11:31.508Z,8.69
2023-03-05T13:13:59.685Z,8.56
2023-03-05T13:16:29.686Z,8.60
2023-03-05T13:19:01.154Z,8.68
2023-03-05T13:21:31.889Z,8.76
2023-03-05T13:24:03.150Z,8.85
2023-03-05T13:26:37.134Z,8.81
2023-03-05T13:29:08.269Z,8.85
2023-03-05T13:31:37.706Z,8.85
2023-03-05T13:34:15.442Z,8.84
2023-03-05T13:36:48.454Z,8.85
2023-03-05T13:39:23.585Z,8.81
2023-03-05T13:42:00.261Z,8.75
2023-03-05T13:44:29.492Z,8.67
2023-03-05T13:47:15.275Z,8.68
2023-03-05T13:49:43.962Z,8.69
2023-03-05T13:52:15.875Z,8.71
2023-03-05T13:54:45.137Z,8.76
2023-03-05T13:57:34.037Z,8.66
2023-03-05T14:00:01.847Z,8.79
2023-03-05T14:02:32.473Z,8.75
2023-03-05T14:05:01.567Z,8.75
2023-03-05T14:07:33.832Z,8.76
2023-03-05T14:10:03.802Z,8.80
2023-03-05T14:12:36.019Z,8.78
2023-03-05T14:15:22.115Z,8.72
2023-03-05T14:17:50.101Z,8.73
2023-03-05T14:20:24.361Z,8.65
2023-03-05T14:22:53.712Z,8.51
2023-03-05T14:25:34.648Z,8.49
2023-03-05T14:28:04.620Z,8.46
2023-03-05T14:30:35.184Z,8.41
2023-03-05T14:33:04.324Z,8.35
2023-03-05T14:35:32.342Z,8.31
2023-03-05T14:38:01.079Z,8.26
2023-03-05T14:40:32.115Z,8.14
2023-03-05T14:43:00.997Z,8.04
2023-03-05T14:45:30.924Z,7.94
2023-03-05T14:48:00.496Z,7.89
2023-03-05T14:50:30.681Z,7.92
2023-03-05T14:53:01.402Z,7.89
2023-03-05T14:55:32.817Z,7.74
2023-03-05T14:58:04.460Z,7.67
2023-03-05T15:00:32.708Z,7.56
2023-03-05T15:03:00.593Z,7.60
2023-03-05T15:05:28.709Z,7.55
2023-03-05T15:07:56.651Z,7.44
2023-03-05T15:10:26.574Z,7.32
2023-03-05T15:12:55.681Z,7.26
2023-03-05T15:15:23.918Z,7.22
2023-03-05T15:17:54.943Z,7.17
2023-03-05T15:20:24.960Z,7.20
2023-03-05T15:22:53.326Z,7.30
2023-03-05T15:25:22.150Z,7.30
2023-03-05T15:27:50.845Z,7.26
2023-03-05T15:30:23.812Z,7.24
2023-03-05T15:32:52.445Z,7.20
2023-03-05T15:35:20.233Z,7.11
2023-03-05T15:37:48.192Z,7.08
2023-03-05T15:40:16.553Z,6.98
2023-03-05T15:42:44.318Z,6.97
2023-03-05T15:45:12.292Z,6.88
2023-03-05T15:47:41.387Z,6.73
2023-03-05T15:50:10.671Z,6.69
2023-03-05T15:52:38.418Z,6.60
2023-03-05T15:55:07.002Z,6.51
2023-03-05T15:57:38.152Z,6.39
2023-03-05T16:00:07.583Z,6.33
2023-03-05T16:02:38.137Z,6.30
2023-03-05T16:05:08.688Z,6.22
2023-03-05T16:07:39.919Z,6.17
2023-03-05T16:10:11.999Z,6.15
2023-03-05T16:12:42.923Z,6.15
2023-03-05T16:15:12.802Z,6.19
2023-03-05T16:17:44.033Z,6.16
2023-03-05T16:20:14.848Z,6.13
2023-03-05T16:22:42.654Z,6.14
2023-03-05T16:25:10.824Z,6.13
2023-03-05T16:27:38.647Z,6.08
2023-03-05T16:30:07.849Z,6.05
2023-03-05T16:32:35.754Z,6.03
2023-03-05T16:35:03.676Z,5.97
2023-03-05T16:37:32.820Z,5.97
2023-03-05T16:40:00.682Z,5.95
2023-03-05T16:42:28.390Z,5.92
2023-03-05T16:44:56.828Z,5.86
2023-03-05T16:47:24.590Z,5.84
2023-03-05T16:49:52.676Z,5.80
2023-03-05T16:52:21.066Z,5.74
2023-03-05T16:54:50.445Z,5.72
2023-03-05T16:57:18.311Z,5.69
2023-03-05T16:59:46.117Z,5.63
2023-03-05T17:02:15.250Z,5.59
2023-03-05T17:04:43.496Z,5.55
2023-03-05T17:07:11.856Z,5.54
2023-03-05T17:09:39.697Z,5.52
2023-03-05T17:12:09.200Z,5.50
2023-03-05T17:14:37.061Z,5.50
2023-03-05T17:17:04.870Z,5.48
2023-03-05T17:19:32.829Z,5.46
2023-03-05T17:22:00.597Z,5.46
2023-03-05T17:24:28.769Z,5.46
2023-03-05T17:26:56.507Z,5.46
2023-03-05T17:29:25.623Z,5.48
2023-03-05T17:31:53.734Z,5.46
2023-03-05T17:34:33.290Z,5.46
2023-03-05T17:37:01.846Z,5.44
2023-03-05T17:39:29.868Z,5.43
2023-03-05T17:41:57.658Z,5.43
2023-03-05T17:44:26.803Z,5.42
2023-03-05T17:46:54.582Z,5.39
2023-03-05T17:49:22.333Z,5.38
2023-03-05T17:51:50.109Z,5.36
2023-03-05T17:54:17.861Z,5.35
2023-03-05T17:56:48.044Z,5.31
2023-03-05T17:59:16.514Z,5.30
2023-03-05T18:01:45.662Z,5.29
2023-03-05T18:04:15.195Z,5.27
2023-03-05T18:06:42.997Z,5.25
2023-03-05T18:09:11.018Z,5.22
2023-03-05T18:11:39.257Z,5.19
2023-03-05T18:14:07.015Z,5.19
2023-03-05T18:16:36.059Z,5.17
2023-03-05T18:19:05.235Z,5.16
2023-03-05T18:21:32.976Z,5.13
2023-03-05T18:24:00.729Z,5.12
2023-03-05T18:26:28.497Z,5.08
2023-03-05T18:28:56.252Z,5.10
2023-03-05T18:31:23.996Z,5.06
2023-03-05T18:33:51.776Z,5.04
2023-03-05T18:36:20.866Z,5.04
2023-03-05T18:38:48.739Z,5.01
2023-03-05T18:41:21.239Z,4.97
2023-03-05T18:43:50.403Z,4.94
2023-03-05T18:46:18.706Z,4.94
2023-03-05T18:48:47.944Z,4.94
2023-03-05T18:51:17.587Z,4.96
2023-03-05T18:53:46.979Z,4.96
2023-03-05T18:56:15.033Z,4.97
2023-03-05T18:58:42.815Z,4.98
2023-03-05T19:01:11.189Z,5.00
2023-03-05T19:03:38.975Z,5.01
2023-03-05T19:06:07.788Z,5.00
2023-03-05T19:08:35.747Z,5.00
2023-03-05T19:11:15.549Z,5.00
2023-03-05T19:13:44.250Z,5.02
2023-03-05T19:16:14.339Z,5.01
2023-03-05T19:18:53.919Z,5.01
2023-03-05T19:21:21.699Z,5.00
2023-03-05T19:23:49.424Z,4.99
2023-03-05T19:26:18.571Z,4.99
2023-03-05T19:28:46.371Z,4.98
2023-03-05T19:31:14.765Z,4.98
2023-03-05T19:33:42.856Z,4.95
2023-03-05T19:36:11.781Z,4.97
2023-03-05T19:38:40.051Z,4.93
2023-03-05T19:41:10.843Z,4.93
2023-03-05T19:43:40.214Z,4.92
2023-03-05T19:46:09.705Z,4.92
2023-03-05T19:48:39.236Z,4.89
2023-03-05T19:51:10.144Z,4.89
2023-03-05T19:53:38.305Z,4.88
2023-03-05T19:56:07.321Z,4.88
2023-03-05T19:58:35.870Z,4.87
2023-03-05T20:01:15.375Z,4.88
2023-03-05T20:03:45.031Z,4.87
2023-03-05T20:06:12.925Z,4.86
2023-03-05T20:08:41.084Z,4.84
2023-03-05T20:11:11.614Z,4.85
2023-03-05T20:13:40.394Z,4.84
2023-03-05T20:16:15.726Z,4.82
2023-03-05T20:18:43.724Z,4.82
2023-03-05T20:21:11.976Z,4.79
2023-03-05T20:23:40.031Z,4.80
2023-03-05T20:26:07.889Z,4.78
2023-03-05T20:28:35.758Z,4.77
2023-03-05T20:31:03.575Z,4.75
2023-03-05T20:33:32.809Z,4.73
2023-03-05T20:36:01.310Z,4.72
2023-03-05T20:38:30.620Z,4.71
2023-03-05T20:40:59.942Z,4.69
2023-03-05T20:43:29.687Z,4.67
2023-03-05T20:45:58.341Z,4.67
2023-03-05T20:48:28.089Z,4.68
2023-03-05T20:50:58.052Z,4.66
2023-03-05T20:53:25.862Z,4.65
2023-03-05T20:55:54.502Z,4.65
2023-03-05T20:58:22.217Z,4.63
2023-03-05T21:00:50.009Z,4.64
2023-03-05T21:03:17.772Z,4.61
2023-03-05T21:05:46.800Z,4.60
2023-03-05T21:08:15.922Z,4.58
2023-03-05T21:10:43.642Z,4.58
2023-03-05T21:13:11.380Z,4.56
2023-03-05T21:15:41.688Z,4.55
2023-03-05T21:18:09.440Z,4.53
2023-03-05T21:20:37.225Z,4.52
2023-03-05T21:23:04.975Z,4.51
2023-03-05T21:25:34.813Z,4.49
2023-03-05T21:28:06.033Z,4.48
2023-03-05T21:30:36.289Z,4.46
2023-03-05T21:33:06.847Z,4.44
2023-03-05T21:35:35.837Z,4.44
2023-03-05T21:38:05.830Z,4.42
2023-03-05T21:40:36.312Z,4.41
2023-03-05T21:43:04.284Z,4.42
2023-03-05T21:45:32.348Z,4.39
2023-03-05T21:48:00.128Z,4.39
2023-03-05T21:50:28.005Z,4.37
2023-03-05T21:52:56.031Z,4.36
2023-03-05T21:55:32.214Z,4.37
2023-03-05T21:58:01.798Z,4.34
2023-03-05T22:00:29.841Z,4.34
2023-03-05T22:02:57.548Z,4.32
2023-03-05T22:05:25.332Z,4.33
2023-03-05T22:07:53.039Z,4.29
2023-03-05T22:10:21.802Z,4.30
2023-03-05T22:12:56.726Z,4.29
2023-03-05T22:15:27.725Z,4.27
2023-03-05T22:17:55.467Z,4.26
2023-03-05T22:20:23.329Z,4.24
2023-03-05T22:22:51.182Z,4.23
2023-03-05T22:25:19.374Z,4.19
2023-03-05T22:27:47.109Z,4.16
2023-03-05T22:30:15.311Z,4.15
2023-03-05T22:32:44.432Z,4.12
2023-03-05T22:35:14.546Z,4.09
2023-03-05T22:37:42.522Z,4.08
2023-03-05T22:40:14.638Z,4.04
2023-03-05T22:42:42.436Z,4.02
2023-03-05T22:45:11.270Z,4.01
2023-03-05T22:47:39.080Z,4.00
2023-03-05T22:50:09.398Z,3.97
2023-03-05T22:52:37.138Z,3.93
2023-03-05T22:55:05.410Z,3.90
2023-03-05T22:57:34.205Z,3.85
2023-03-05T23:00:01.961Z,3.80
2023-03-05T23:02:29.859Z,3.72
2023-03-05T23:05:00.396Z,3.66
2023-03-05T23:07:32.460Z,3.59
2023-03-05T23:10:02.342Z,3.51
2023-03-05T23:12:33.104Z,3.45
2023-03-05T23:15:01.768Z,3.39
2023-03-05T23:17:29.662Z,3.31
2023-03-05T23:19:57.428Z,3.24
2023-03-05T23:22:25.251Z,3.18
2023-03-05T23:24:54.419Z,3.13
2023-03-05T23:27:22.269Z,3.11
2023-03-05T23:30:04.506Z,3.09
2023-03-05T23:32:32.275Z,3.01
2023-03-05T23:35:00.118Z,2.96
2023-03-05T23:37:27.887Z,2.92
2023-03-05T23:39:57.143Z,2.84
2023-03-05T23:42:24.853Z,2.82
2023-03-05T23:44:54.171Z,2.79
2023-03-05T23:47:21.980Z,2.80
2023-03-05T23:49:49.795Z,2.80
2023-03-05T23:52:17.521Z,2.81
2023-03-05T23:54:45.467Z,2.83
2023-03-05T23:57:14.579Z,2.87
2023-03-05T23:59:42.287Z,2.95
